sensor_id;sensor_type;location;lat;lon;timestamp;temperature;humidity
46378;DHT22;32083;47.360;9.650;2022-11-21T05:01:11;5.70;99.90
46378;DHT22;32083;47.360;9.650;2022-11-21T05:03:37;5.70;99.90
46378;DHT22;32083;47.360;9.650;2022-11-21T05:06:03;5.70;99.90
46378;DHT22;32083;47.360;9.650;2022-11-21T05:08:29;5.70;99.90
46378;DHT22;32083;47.360;9.650;2022-11-21T05:10:55;5.70;99.90
46378;DHT22;32083;47.360;9.650;2022-11-21T05:13:39;5.70;99.90
46378;DHT22;32083;47.360;9.650;2022-11-21T05:16:05;5.70;99.90
46378;DHT22;32083;47.360;9.650;2022-11-21T05:18:31;5.70;99.90
46378;DHT22;32083;47.360;9.650;2022-11-21T05:20:57;5.70;99.90
46378;DHT22;32083;47.360;9.650;2022-11-21T05:23:23;5.80;99.90
46378;DHT22;32083;47.360;9.650;2022-11-21T05:25:49;5.70;99.90
46378;DHT22;32083;47.360;9.650;2022-11-21T05:28:15;5.80;99.90
46378;DHT22;32083;47.360;9.650;2022-11-21T05:30:41;5.80;99.90
46378;DHT22;32083;47.360;9.650;2022-11-21T05:33:07;5.70;99.90
46378;DHT22;32083;47.360;9.650;2022-11-21T05:35:33;5.70;99.90
46378;DHT22;32083;47.360;9.650;2022-11-21T05:37:59;5.70;99.90
46378;DHT22;32083;47.360;9.650;2022-11-21T05:40:25;5.70;99.90
46378;DHT22;32083;47.360;9.650;2022-11-21T05:42:51;5.70;99.90
46378;DHT22;32083;47.360;9.650;2022-11-21T05:45:35;5.70;99.90
46378;DHT22;32083;47.360;9.650;2022-11-21T05:48:01;5.70;99.90
46378;DHT22;32083;47.360;9.650;2022-11-21T05:50:33;5.70;99.90
46378;DHT22;32083;47.360;9.650;2022-11-21T05:53:05;5.70;99.90
46378;DHT22;32083;47.360;9.650;2022-11-21T05:55:33;5.70;99.90
46378;DHT22;32083;47.360;9.650;2022-11-21T05:58:00;5.70;99.90
46378;DHT22;32083;47.360;9.650;2022-11-21T06:00:27;5.70;99.90
46378;DHT22;32083;47.360;9.650;2022-11-21T06:02:53;5.70;99.90
46378;DHT22;32083;47.360;9.650;2022-11-21T06:05:37;5.70;99.90
46378;DHT22;32083;47.360;9.650;2022-11-21T06:08:03;5.70;99.90
46378;DHT22;32083;47.360;9.650;2022-11-21T06:10:29;5.70;99.90
46378;DHT22;32083;47.360;9.650;2022-11-21T06:12:59;5.70;99.90
46378;DHT22;32083;47.360;9.650;2022-11-21T06:15:25;5.80;99.90
46378;DHT22;32083;47.360;9.650;2022-11-21T06:17:51;5.80;99.90
46378;DHT22;32083;47.360;9.650;2022-11-21T06:20:17;5.70;99.90
46378;DHT22;32083;47.360;9.650;2022-11-21T06:22:43;5.70;99.90
46378;DHT22;32083;47.360;9.650;2022-11-21T06:25:09;5.80;99.90
46378;DHT22;32083;47.360;9.650;2022-11-21T06:27:35;5.80;99.90
46378;DHT22;32083;47.360;9.650;2022-11-21T06:30:01;5.80;99.90
46378;DHT22;32083;47.360;9.650;2022-11-21T06:32:27;5.80;99.90
46378;DHT22;32083;47.360;9.650;2022-11-21T06:34:53;5.80;99.90
46378;DHT22;32083;47.360;9.650;2022-11-21T06:37:19;5.80;99.90
46378;DHT22;32083;47.360;9.650;2022-11-21T06:39:45;5.90;99.90
46378;DHT22;32083;47.360;9.650;2022-11-21T06:42:11;5.90;99.90
46378;DHT22;32083;47.360;9.650;2022-11-21T06:44:37;5.80;99.90
46378;DHT22;32083;47.360;9.650;2022-11-21T06:47:02;5.80;99.90
46378;DHT22;32083;47.360;9.650;2022-11-21T06:49:28;5.80;99.90
46378;DHT22;32083;47.360;9.650;2022-11-21T06:51:54;5.80;99.90
46378;DHT22;32083;47.360;9.650;2022-11-21T06:54:20;5.80;99.90
46378;DHT22;32083;47.360;9.650;2022-11-21T06:56:46;5.80;99.90
46378;DHT22;32083;47.360;9.650;2022-11-21T06:59:12;5.80;99.90
46378;DHT22;32083;47.360;9.650;2022-11-21T07:01:38;5.90;99.90
46378;DHT22;32083;47.360;9.650;2022-11-21T07:04:04;5.80;99.90
46378;DHT22;32083;47.360;9.650;2022-11-21T07:06:30;5.80;99.90
46378;DHT22;32083;47.360;9.650;2022-11-21T07:08:56;5.80;99.90
46378;DHT22;32083;47.360;9.650;2022-11-21T07:11:22;5.80;99.90
46378;DHT22;32083;47.360;9.650;2022-11-21T07:13:48;5.80;99.90
46378;DHT22;32083;47.360;9.650;2022-11-21T07:16:13;5.80;99.90
46378;DHT22;32083;47.360;9.650;2022-11-21T07:18:39;5.80;99.90
46378;DHT22;32083;47.360;9.650;2022-11-21T07:21:08;5.80;99.90
46378;DHT22;32083;47.360;9.650;2022-11-21T07:23:34;5.80;99.90
46378;DHT22;32083;47.360;9.650;2022-11-21T07:26:02;5.80;99.90
46378;DHT22;32083;47.360;9.650;2022-11-21T07:28:28;5.80;99.90
46378;DHT22;32083;47.360;9.650;2022-11-21T07:30:56;5.90;99.90
46378;DHT22;32083;47.360;9.650;2022-11-21T07:33:22;5.80;99.90
46378;DHT22;32083;47.360;9.650;2022-11-21T07:35:48;5.90;99.90
46378;DHT22;32083;47.360;9.650;2022-11-21T07:38:14;5.90;99.90
46378;DHT22;32083;47.360;9.650;2022-11-21T07:40:40;5.90;99.90
46378;DHT22;32083;47.360;9.650;2022-11-21T07:43:06;5.90;99.90
46378;DHT22;32083;47.360;9.650;2022-11-21T07:45:32;5.90;99.90
46378;DHT22;32083;47.360;9.650;2022-11-21T07:48:00;6.00;99.90
46378;DHT22;32083;47.360;9.650;2022-11-21T07:50:27;6.00;99.90
46378;DHT22;32083;47.360;9.650;2022-11-21T07:53:01;5.90;99.90
46378;DHT22;32083;47.360;9.650;2022-11-21T07:55:27;6.00;99.90
46378;DHT22;32083;47.360;9.650;2022-11-21T07:58:03;6.00;99.90
46378;DHT22;32083;47.360;9.650;2022-11-21T08:00:31;6.00;99.90
46378;DHT22;32083;47.360;9.650;2022-11-21T08:02:57;6.00;99.90
46378;DHT22;32083;47.360;9.650;2022-11-21T08:05:23;6.00;99.90
46378;DHT22;32083;47.360;9.650;2022-11-21T08:07:50;6.00;99.90
46378;DHT22;32083;47.360;9.650;2022-11-21T08:10:16;6.10;99.90
46378;DHT22;32083;47.360;9.650;2022-11-21T08:12:43;6.10;99.90
46378;DHT22;32083;47.360;9.650;2022-11-21T08:15:10;6.10;99.90
46378;DHT22;32083;47.360;9.650;2022-11-21T08:17:36;6.10;99.90
46378;DHT22;32083;47.360;9.650;2022-11-21T08:20:07;6.10;99.90
46378;DHT22;32083;47.360;9.650;2022-11-21T08:22:43;6.20;99.90
46378;DHT22;32083;47.360;9.650;2022-11-21T08:25:09;6.20;99.90
46378;DHT22;32083;47.360;9.650;2022-11-21T08:27:37;6.20;99.90
46378;DHT22;32083;47.360;9.650;2022-11-21T08:30:07;6.30;99.90
46378;DHT22;32083;47.360;9.650;2022-11-21T08:32:33;6.30;99.90
46378;DHT22;32083;47.360;9.650;2022-11-21T08:34:59;6.30;99.90
46378;DHT22;32083;47.360;9.650;2022-11-21T08:37:28;6.30;99.90
46378;DHT22;32083;47.360;9.650;2022-11-21T08:39:55;6.40;99.90
46378;DHT22;32083;47.360;9.650;2022-11-21T08:42:23;6.40;99.90
46378;DHT22;32083;47.360;9.650;2022-11-21T08:44:50;6.30;99.90
46378;DHT22;32083;47.360;9.650;2022-11-21T08:47:16;6.40;99.90
46378;DHT22;32083;47.360;9.650;2022-11-21T08:49:42;6.40;99.90
46378;DHT22;32083;47.360;9.650;2022-11-21T08:52:08;6.40;99.90
46378;DHT22;32083;47.360;9.650;2022-11-21T08:54:34;6.50;99.90
46378;DHT22;32083;47.360;9.650;2022-11-21T08:57:00;6.50;99.90
46378;DHT22;32083;47.360;9.650;2022-11-21T08:59:26;6.50;99.90
46378;DHT22;32083;47.360;9.650;2022-11-21T09:01:52;6.60;99.90
46378;DHT22;32083;47.360;9.650;2022-11-21T09:04:18;6.60;99.90
46378;DHT22;32083;47.360;9.650;2022-11-21T09:06:44;6.70;99.90
46378;DHT22;32083;47.360;9.650;2022-11-21T09:09:10;6.70;99.90
46378;DHT22;32083;47.360;9.650;2022-11-21T09:11:35;6.70;99.90
46378;DHT22;32083;47.360;9.650;2022-11-21T09:14:02;6.60;99.90
46378;DHT22;32083;47.360;9.650;2022-11-21T09:16:46;6.70;99.90
46378;DHT22;32083;47.360;9.650;2022-11-21T09:19:31;6.70;99.90
46378;DHT22;32083;47.360;9.650;2022-11-21T09:21:57;6.70;99.90
46378;DHT22;32083;47.360;9.650;2022-11-21T09:24:23;6.80;99.90
46378;DHT22;32083;47.360;9.650;2022-11-21T09:26:49;6.80;99.90
46378;DHT22;32083;47.360;9.650;2022-11-21T09:29:15;6.80;99.90
46378;DHT22;32083;47.360;9.650;2022-11-21T09:31:41;6.90;99.90
46378;DHT22;32083;47.360;9.650;2022-11-21T09:34:08;6.90;99.90
46378;DHT22;32083;47.360;9.650;2022-11-21T09:36:34;6.90;99.90
46378;DHT22;32083;47.360;9.650;2022-11-21T09:39:00;6.90;99.90
46378;DHT22;32083;47.360;9.650;2022-11-21T09:44:45;7.10;99.90
46378;DHT22;32083;47.360;9.650;2022-11-21T09:47:24;7.10;99.90
46378;DHT22;32083;47.360;9.650;2022-11-21T09:50:33;7.20;99.90
46378;DHT22;32083;47.360;9.650;2022-11-21T09:58:03;7.40;99.90
46378;DHT22;32083;47.360;9.650;2022-11-21T10:00:30;7.40;99.90
46378;DHT22;32083;47.360;9.650;2022-11-21T10:02:56;7.50;99.90
46378;DHT22;32083;47.360;9.650;2022-11-21T10:05:37;7.60;99.90
46378;DHT22;32083;47.360;9.650;2022-11-21T10:11:06;7.80;99.90
46378;DHT22;32083;47.360;9.650;2022-11-21T10:17:00;7.90;99.90
46378;DHT22;32083;47.360;9.650;2022-11-21T10:25:35;8.00;99.90
46378;DHT22;32083;47.360;9.650;2022-11-21T10:28:14;8.00;99.90
46378;DHT22;32083;47.360;9.650;2022-11-21T10:30:44;8.10;99.90
46378;DHT22;32083;47.360;9.650;2022-11-21T10:33:27;8.10;99.90
46378;DHT22;32083;47.360;9.650;2022-11-21T10:35:58;8.10;99.90
46378;DHT22;32083;47.360;9.650;2022-11-21T10:38:27;8.10;99.90
46378;DHT22;32083;47.360;9.650;2022-11-21T10:41:12;8.10;99.90
46378;DHT22;32083;47.360;9.650;2022-11-21T10:46:55;8.10;99.90
46378;DHT22;32083;47.360;9.650;2022-11-21T10:49:23;8.10;99.90
46378;DHT22;32083;47.360;9.650;2022-11-21T10:52:06;8.10;99.90
46378;DHT22;32083;47.360;9.650;2022-11-21T10:57:27;8.20;99.90
46378;DHT22;32083;47.360;9.650;2022-11-21T11:02:25;8.20;99.90
46378;DHT22;32083;47.360;9.650;2022-11-21T11:07:43;8.20;99.90
46378;DHT22;32083;47.360;9.650;2022-11-21T11:10:23;8.30;99.90
46378;DHT22;32083;47.360;9.650;2022-11-21T11:12:50;8.20;99.90
46378;DHT22;32083;47.360;9.650;2022-11-21T11:15:36;8.20;99.90
46378;DHT22;32083;47.360;9.650;2022-11-21T11:18:04;8.20;99.90
46378;DHT22;32083;47.360;9.650;2022-11-21T11:22:57;8.30;99.90
46378;DHT22;32083;47.360;9.650;2022-11-21T11:25:23;8.40;99.90
46378;DHT22;32083;47.360;9.650;2022-11-21T11:27:49;8.40;99.90
46378;DHT22;32083;47.360;9.650;2022-11-21T11:30:17;8.40;99.90
46378;DHT22;32083;47.360;9.650;2022-11-21T11:32:43;8.40;99.90
46378;DHT22;32083;47.360;9.650;2022-11-21T11:37:40;8.40;99.90
46378;DHT22;32083;47.360;9.650;2022-11-21T11:40:35;8.40;99.90
46378;DHT22;32083;47.360;9.650;2022-11-21T11:44:16;8.40;99.50
46378;DHT22;32083;47.360;9.650;2022-11-21T11:46:53;8.50;99.90
46378;DHT22;32083;47.360;9.650;2022-11-21T11:49:54;8.60;99.80
46378;DHT22;32083;47.360;9.650;2022-11-21T11:55:45;8.70;99.50
46378;DHT22;32083;47.360;9.650;2022-11-21T12:03:27;8.80;99.50
46378;DHT22;32083;47.360;9.650;2022-11-21T12:06:09;8.80;99.40
46378;DHT22;32083;47.360;9.650;2022-11-21T12:17:57;8.90;97.90
46378;DHT22;32083;47.360;9.650;2022-11-21T12:23:11;8.90;99.00
46378;DHT22;32083;47.360;9.650;2022-11-21T12:26:17;8.90;97.80
46378;DHT22;32083;47.360;9.650;2022-11-21T12:29:00;8.90;97.20
46378;DHT22;32083;47.360;9.650;2022-11-21T12:31:44;8.90;98.60
46378;DHT22;32083;47.360;9.650;2022-11-21T12:34:19;9.00;98.50
46378;DHT22;32083;47.360;9.650;2022-11-21T12:37:15;9.00;98.30
46378;DHT22;32083;47.360;9.650;2022-11-21T12:39:55;9.00;97.20
46378;DHT22;32083;47.360;9.650;2022-11-21T12:54:20;9.00;97.00
46378;DHT22;32083;47.360;9.650;2022-11-21T12:57:10;9.00;96.90
46378;DHT22;32083;47.360;9.650;2022-11-21T13:00:03;9.00;95.90
46378;DHT22;32083;47.360;9.650;2022-11-21T13:05:38;9.10;94.90
46378;DHT22;32083;47.360;9.650;2022-11-21T13:08:22;9.10;95.30
46378;DHT22;32083;47.360;9.650;2022-11-21T13:16:38;9.20;95.30
46378;DHT22;32083;47.360;9.650;2022-11-21T13:21:56;9.20;94.90
46378;DHT22;32083;47.360;9.650;2022-11-21T13:32:46;9.30;94.40
46378;DHT22;32083;47.360;9.650;2022-11-21T13:38:01;9.30;94.50
46378;DHT22;32083;47.360;9.650;2022-11-21T13:43:22;9.20;94.30
46378;DHT22;32083;47.360;9.650;2022-11-21T13:45:49;9.30;94.40
46378;DHT22;32083;47.360;9.650;2022-11-21T13:59:23;9.20;94.30
46378;DHT22;32083;47.360;9.650;2022-11-21T14:02:04;9.20;94.50
46378;DHT22;32083;47.360;9.650;2022-11-21T14:04:56;9.20;94.90
46378;DHT22;32083;47.360;9.650;2022-11-21T14:07:28;9.20;94.80
46378;DHT22;32083;47.360;9.650;2022-11-21T14:09:57;9.20;93.90
46378;DHT22;32083;47.360;9.650;2022-11-21T14:12:35;9.20;94.40
46378;DHT22;32083;47.360;9.650;2022-11-21T14:17:38;9.10;95.40
46378;DHT22;32083;47.360;9.650;2022-11-21T14:28:08;9.00;95.70
46378;DHT22;32083;47.360;9.650;2022-11-21T14:30:40;9.00;95.00
46378;DHT22;32083;47.360;9.650;2022-11-21T14:46:35;9.00;94.70
46378;DHT22;32083;47.360;9.650;2022-11-21T14:49:19;9.00;94.60
46378;DHT22;32083;47.360;9.650;2022-11-21T14:51:55;9.00;95.30
46378;DHT22;32083;47.360;9.650;2022-11-21T14:54:25;8.90;95.60
46378;DHT22;32083;47.360;9.650;2022-11-21T14:57:01;8.80;95.20
46378;DHT22;32083;47.360;9.650;2022-11-21T14:59:39;8.80;96.20
46378;DHT22;32083;47.360;9.650;2022-11-21T15:02:27;8.70;95.90
46378;DHT22;32083;47.360;9.650;2022-11-21T15:05:00;8.70;96.60
46378;DHT22;32083;47.360;9.650;2022-11-21T15:07:28;8.70;96.70
46378;DHT22;32083;47.360;9.650;2022-11-21T15:09:59;8.60;96.60
46378;DHT22;32083;47.360;9.650;2022-11-21T15:15:27;8.50;97.00
46378;DHT22;32083;47.360;9.650;2022-11-21T15:17:57;8.50;97.60
46378;DHT22;32083;47.360;9.650;2022-11-21T15:20:24;8.40;98.50
46378;DHT22;32083;47.360;9.650;2022-11-21T15:22:54;8.20;98.40
46378;DHT22;32083;47.360;9.650;2022-11-21T15:25:23;8.20;98.60
46378;DHT22;32083;47.360;9.650;2022-11-21T15:30:29;8.20;98.60
46378;DHT22;32083;47.360;9.650;2022-11-21T15:33:00;8.10;98.70
46378;DHT22;32083;47.360;9.650;2022-11-21T15:38:14;8.10;98.20
46378;DHT22;32083;47.360;9.650;2022-11-21T15:40:53;8.00;98.60
46378;DHT22;32083;47.360;9.650;2022-11-21T15:43:48;8.00;98.90
46378;DHT22;32083;47.360;9.650;2022-11-21T15:51:23;7.80;99.20
46378;DHT22;32083;47.360;9.650;2022-11-21T15:53:49;7.80;99.50
46378;DHT22;32083;47.360;9.650;2022-11-21T15:56:18;7.80;99.60
46378;DHT22;32083;47.360;9.650;2022-11-21T15:58:44;7.70;99.40
46378;DHT22;32083;47.360;9.650;2022-11-21T16:01:13;7.70;99.50
46378;DHT22;32083;47.360;9.650;2022-11-21T16:03:40;7.60;99.50
46378;DHT22;32083;47.360;9.650;2022-11-21T16:06:06;7.60;99.70
46378;DHT22;32083;47.360;9.650;2022-11-21T16:08:32;7.50;99.90
46378;DHT22;32083;47.360;9.650;2022-11-21T16:10:58;7.40;99.90
46378;DHT22;32083;47.360;9.650;2022-11-21T16:13:25;7.40;99.90
46378;DHT22;32083;47.360;9.650;2022-11-21T16:15:51;7.40;99.90
46378;DHT22;32083;47.360;9.650;2022-11-21T16:18:17;7.30;99.90
46378;DHT22;32083;47.360;9.650;2022-11-21T16:20:43;7.20;99.90
46378;DHT22;32083;47.360;9.650;2022-11-21T16:23:12;7.20;99.90
46378;DHT22;32083;47.360;9.650;2022-11-21T16:25:55;7.10;99.90
46378;DHT22;32083;47.360;9.650;2022-11-21T16:28:20;7.10;99.90
46378;DHT22;32083;47.360;9.650;2022-11-21T16:30:46;7.00;99.90
46378;DHT22;32083;47.360;9.650;2022-11-21T16:33:12;7.00;99.90
46378;DHT22;32083;47.360;9.650;2022-11-21T16:35:39;6.90;99.90
46378;DHT22;32083;47.360;9.650;2022-11-21T16:38:10;6.90;99.90
46378;DHT22;32083;47.360;9.650;2022-11-21T16:40:36;6.90;99.90
46378;DHT22;32083;47.360;9.650;2022-11-21T16:43:09;6.80;99.90
46378;DHT22;32083;47.360;9.650;2022-11-21T16:45:35;6.80;99.90
46378;DHT22;32083;47.360;9.650;2022-11-21T16:48:02;6.80;99.90
46378;DHT22;32083;47.360;9.650;2022-11-21T16:50:28;6.70;99.90
46378;DHT22;32083;47.360;9.650;2022-11-21T16:52:54;6.70;99.90
46378;DHT22;32083;47.360;9.650;2022-11-21T16:55:20;6.70;99.90
46378;DHT22;32083;47.360;9.650;2022-11-21T16:57:46;6.70;99.90
46378;DHT22;32083;47.360;9.650;2022-11-21T17:00:12;6.70;99.90
46378;DHT22;32083;47.360;9.650;2022-11-21T17:02:39;6.60;99.90
46378;DHT22;32083;47.360;9.650;2022-11-21T17:05:05;6.60;99.90
46378;DHT22;32083;47.360;9.650;2022-11-21T17:07:32;6.60;99.90
46378;DHT22;32083;47.360;9.650;2022-11-21T17:09:58;6.60;99.90
46378;DHT22;32083;47.360;9.650;2022-11-21T17:12:25;6.50;99.90
46378;DHT22;32083;47.360;9.650;2022-11-21T17:14:51;6.50;99.90
46378;DHT22;32083;47.360;9.650;2022-11-21T17:17:17;6.50;99.90
46378;DHT22;32083;47.360;9.650;2022-11-21T17:19:43;6.40;99.90
46378;DHT22;32083;47.360;9.650;2022-11-21T17:22:10;6.50;99.90
46378;DHT22;32083;47.360;9.650;2022-11-21T17:24:36;6.40;99.90
46378;DHT22;32083;47.360;9.650;2022-11-21T17:27:02;6.30;99.90
46378;DHT22;32083;47.360;9.650;2022-11-21T17:29:28;6.30;99.90
46378;DHT22;32083;47.360;9.650;2022-11-21T17:31:55;6.30;99.90
46378;DHT22;32083;47.360;9.650;2022-11-21T17:34:21;6.30;99.90
46378;DHT22;32083;47.360;9.650;2022-11-21T17:36:47;6.30;99.90
46378;DHT22;32083;47.360;9.650;2022-11-21T17:39:13;6.30;99.90
46378;DHT22;32083;47.360;9.650;2022-11-21T17:41:39;6.30;99.90
46378;DHT22;32083;47.360;9.650;2022-11-21T17:44:05;6.30;99.90
46378;DHT22;32083;47.360;9.650;2022-11-21T17:46:31;6.30;99.90
46378;DHT22;32083;47.360;9.650;2022-11-21T17:48:57;6.40;99.90
46378;DHT22;32083;47.360;9.650;2022-11-21T17:51:26;6.30;99.90
46378;DHT22;32083;47.360;9.650;2022-11-21T17:53:53;6.40;99.90
46378;DHT22;32083;47.360;9.650;2022-11-21T17:56:21;6.30;99.90
46378;DHT22;32083;47.360;9.650;2022-11-21T17:58:48;6.40;99.90
46378;DHT22;32083;47.360;9.650;2022-11-21T18:01:14;6.40;99.90
46378;DHT22;32083;47.360;9.650;2022-11-21T18:03:45;6.30;99.90
46378;DHT22;32083;47.360;9.650;2022-11-21T18:06:13;6.40;99.90
46378;DHT22;32083;47.360;9.650;2022-11-21T18:08:41;6.30;99.90
46378;DHT22;32083;47.360;9.650;2022-11-21T18:11:09;6.30;99.90
46378;DHT22;32083;47.360;9.650;2022-11-21T18:13:36;6.30;99.90
46378;DHT22;32083;47.360;9.650;2022-11-21T18:16:10;6.20;99.90
46378;DHT22;32083;47.360;9.650;2022-11-21T18:18:37;6.20;99.90
46378;DHT22;32083;47.360;9.650;2022-11-21T18:21:05;6.20;99.90
46378;DHT22;32083;47.360;9.650;2022-11-21T18:23:33;6.10;99.90
46378;DHT22;32083;47.360;9.650;2022-11-21T18:26:11;6.20;99.90
46378;DHT22;32083;47.360;9.650;2022-11-21T18:28:38;6.20;99.90
46378;DHT22;32083;47.360;9.650;2022-11-21T18:31:13;6.20;99.90
46378;DHT22;32083;47.360;9.650;2022-11-21T18:33:39;6.10;99.90
46378;DHT22;32083;47.360;9.650;2022-11-21T18:36:07;6.00;99.90
46378;DHT22;32083;47.360;9.650;2022-11-21T18:38:38;6.00;99.90
46378;DHT22;32083;47.360;9.650;2022-11-21T18:43:38;6.00;99.90
46378;DHT22;32083;47.360;9.650;2022-11-21T18:46:06;6.00;99.90
46378;DHT22;32083;47.360;9.650;2022-11-21T18:48:33;6.00;99.90
46378;DHT22;32083;47.360;9.650;2022-11-21T18:53:38;6.10;99.90
46378;DHT22;32083;47.360;9.650;2022-11-21T18:56:07;6.20;99.90
46378;DHT22;32083;47.360;9.650;2022-11-21T18:58:34;6.30;99.90
46378;DHT22;32083;47.360;9.650;2022-11-21T19:01:01;6.30;99.90
46378;DHT22;32083;47.360;9.650;2022-11-21T19:03:28;6.30;99.90
46378;DHT22;32083;47.360;9.650;2022-11-21T19:05:54;6.40;99.90
46378;DHT22;32083;47.360;9.650;2022-11-21T19:08:20;6.30;99.90
46378;DHT22;32083;47.360;9.650;2022-11-21T19:10:46;6.30;99.90
46378;DHT22;32083;47.360;9.650;2022-11-21T19:13:12;6.30;99.90
46378;DHT22;32083;47.360;9.650;2022-11-21T19:15:38;6.30;99.90
46378;DHT22;32083;47.360;9.650;2022-11-21T19:18:07;6.40;99.90
46378;DHT22;32083;47.360;9.650;2022-11-21T19:20:37;6.30;99.90
46378;DHT22;32083;47.360;9.650;2022-11-21T19:23:03;6.30;99.90
46378;DHT22;32083;47.360;9.650;2022-11-21T19:25:29;6.40;99.90
46378;DHT22;32083;47.360;9.650;2022-11-21T19:27:59;6.40;99.90
46378;DHT22;32083;47.360;9.650;2022-11-21T19:30:26;6.40;99.90
46378;DHT22;32083;47.360;9.650;2022-11-21T19:32:52;6.40;99.90
46378;DHT22;32083;47.360;9.650;2022-11-21T19:35:18;6.30;99.90
46378;DHT22;32083;47.360;9.650;2022-11-21T19:37:45;6.40;99.90
46378;DHT22;32083;47.360;9.650;2022-11-21T19:40:12;6.30;99.90
46378;DHT22;32083;47.360;9.650;2022-11-21T19:42:38;6.30;99.90
46378;DHT22;32083;47.360;9.650;2022-11-21T19:45:07;6.30;99.90
46378;DHT22;32083;47.360;9.650;2022-11-21T19:47:34;6.30;99.90
46378;DHT22;32083;47.360;9.650;2022-11-21T19:50:00;6.30;99.90
46378;DHT22;32083;47.360;9.650;2022-11-21T19:52:27;6.20;99.90
46378;DHT22;32083;47.360;9.650;2022-11-21T19:54:52;6.20;99.90
46378;DHT22;32083;47.360;9.650;2022-11-21T19:57:18;6.10;99.90
46378;DHT22;32083;47.360;9.650;2022-11-21T19:59:44;6.20;99.90
46378;DHT22;32083;47.360;9.650;2022-11-21T20:02:18;6.30;99.90
46378;DHT22;32083;47.360;9.650;2022-11-21T20:04:45;6.30;99.90
46378;DHT22;32083;47.360;9.650;2022-11-21T20:07:12;6.30;99.90
46378;DHT22;32083;47.360;9.650;2022-11-21T20:09:38;6.40;99.90
46378;DHT22;32083;47.360;9.650;2022-11-21T20:12:07;6.50;99.90
46378;DHT22;32083;47.360;9.650;2022-11-21T20:14:33;6.60;99.90
46378;DHT22;32083;47.360;9.650;2022-11-21T20:16:59;6.70;99.90
46378;DHT22;32083;47.360;9.650;2022-11-21T20:19:25;6.70;99.90
46378;DHT22;32083;47.360;9.650;2022-11-21T20:21:51;6.70;99.90
46378;DHT22;32083;47.360;9.650;2022-11-21T20:24:18;6.80;99.90
46378;DHT22;32083;47.360;9.650;2022-11-21T20:26:44;6.90;99.90
46378;DHT22;32083;47.360;9.650;2022-11-21T20:29:13;6.90;99.90
46378;DHT22;32083;47.360;9.650;2022-11-21T20:31:40;7.00;99.90
46378;DHT22;32083;47.360;9.650;2022-11-21T20:34:15;7.10;99.90
46378;DHT22;32083;47.360;9.650;2022-11-21T20:36:41;7.10;99.90
46378;DHT22;32083;47.360;9.650;2022-11-21T20:39:15;7.10;99.90
46378;DHT22;32083;47.360;9.650;2022-11-21T20:41:42;7.20;99.90
46378;DHT22;32083;47.360;9.650;2022-11-21T20:44:19;7.10;99.90
46378;DHT22;32083;47.360;9.650;2022-11-21T20:46:47;7.10;99.90
46378;DHT22;32083;47.360;9.650;2022-11-21T20:49:14;7.20;99.90
46378;DHT22;32083;47.360;9.650;2022-11-21T20:51:40;7.20;99.90
46378;DHT22;32083;47.360;9.650;2022-11-21T20:54:08;7.20;99.90
46378;DHT22;32083;47.360;9.650;2022-11-21T20:56:36;7.30;99.90
46378;DHT22;32083;47.360;9.650;2022-11-21T20:59:03;7.20;99.90
46378;DHT22;32083;47.360;9.650;2022-11-21T21:01:30;7.30;99.90
46378;DHT22;32083;47.360;9.650;2022-11-21T21:03:56;7.30;99.90
46378;DHT22;32083;47.360;9.650;2022-11-21T21:06:22;7.40;99.90
46378;DHT22;32083;47.360;9.650;2022-11-21T21:08:49;7.40;99.90
46378;DHT22;32083;47.360;9.650;2022-11-21T21:11:18;7.40;99.90
46378;DHT22;32083;47.360;9.650;2022-11-21T21:13:44;7.40;99.90
46378;DHT22;32083;47.360;9.650;2022-11-21T21:16:19;7.40;99.90
46378;DHT22;32083;47.360;9.650;2022-11-21T21:18:47;7.40;99.90
46378;DHT22;32083;47.360;9.650;2022-11-21T21:21:19;7.40;99.90
46378;DHT22;32083;47.360;9.650;2022-11-21T21:23:53;7.40;99.90
46378;DHT22;32083;47.360;9.650;2022-11-21T21:26:31;7.50;99.90
46378;DHT22;32083;47.360;9.650;2022-11-21T21:28:58;7.50;99.90
46378;DHT22;32083;47.360;9.650;2022-11-21T21:31:26;7.50;99.90
46378;DHT22;32083;47.360;9.650;2022-11-21T21:33:52;7.50;99.90
46378;DHT22;32083;47.360;9.650;2022-11-21T21:36:20;7.50;99.90
46378;DHT22;32083;47.360;9.650;2022-11-21T21:38:54;7.60;99.90
46378;DHT22;32083;47.360;9.650;2022-11-21T21:41:21;7.60;99.90
46378;DHT22;32083;47.360;9.650;2022-11-21T21:43:48;7.60;99.90
46378;DHT22;32083;47.360;9.650;2022-11-21T21:46:15;7.60;99.90
46378;DHT22;32083;47.360;9.650;2022-11-21T21:48:42;7.60;99.90
46378;DHT22;32083;47.360;9.650;2022-11-21T21:51:15;7.60;99.90
46378;DHT22;32083;47.360;9.650;2022-11-21T21:53:43;7.60;99.90
46378;DHT22;32083;47.360;9.650;2022-11-21T21:56:10;7.70;99.90
46378;DHT22;32083;47.360;9.650;2022-11-21T21:58:38;7.70;99.90
46378;DHT22;32083;47.360;9.650;2022-11-21T22:01:06;7.70;99.90
46378;DHT22;32083;47.360;9.650;2022-11-21T22:03:33;7.70;99.90
46378;DHT22;32083;47.360;9.650;2022-11-21T22:06:04;7.70;99.90
46378;DHT22;32083;47.360;9.650;2022-11-21T22:08:32;7.70;99.90
46378;DHT22;32083;47.360;9.650;2022-11-21T22:13:28;7.70;99.90
46378;DHT22;32083;47.360;9.650;2022-11-21T22:16:00;7.70;99.90
46378;DHT22;32083;47.360;9.650;2022-11-21T22:18:26;7.80;99.90
46378;DHT22;32083;47.360;9.650;2022-11-21T22:20:53;7.70;99.90
46378;DHT22;32083;47.360;9.650;2022-11-21T22:23:19;7.70;99.90
46378;DHT22;32083;47.360;9.650;2022-11-21T22:25:45;7.60;99.90
46378;DHT22;32083;47.360;9.650;2022-11-21T22:28:11;7.60;99.90
46378;DHT22;32083;47.360;9.650;2022-11-21T22:30:37;7.60;99.90
46378;DHT22;32083;47.360;9.650;2022-11-21T22:33:03;7.60;99.90
46378;DHT22;32083;47.360;9.650;2022-11-21T22:35:33;7.60;99.90
46378;DHT22;32083;47.360;9.650;2022-11-21T22:37:59;7.60;99.90
46378;DHT22;32083;47.360;9.650;2022-11-21T22:40:26;7.70;99.90
46378;DHT22;32083;47.360;9.650;2022-11-21T22:42:52;7.70;99.90
46378;DHT22;32083;47.360;9.650;2022-11-21T22:45:18;7.70;99.90
46378;DHT22;32083;47.360;9.650;2022-11-21T22:47:43;7.70;99.90
46378;DHT22;32083;47.360;9.650;2022-11-21T22:50:09;7.70;99.90
46378;DHT22;32083;47.360;9.650;2022-11-21T22:52:35;7.70;99.90
46378;DHT22;32083;47.360;9.650;2022-11-21T22:55:01;7.70;99.90
46378;DHT22;32083;47.360;9.650;2022-11-21T22:57:27;7.70;99.90
46378;DHT22;32083;47.360;9.650;2022-11-21T22:59:53;7.70;99.90
46378;DHT22;32083;47.360;9.650;2022-11-21T23:02:19;7.60;99.90
46378;DHT22;32083;47.360;9.650;2022-11-21T23:04:45;7.60;99.90
46378;DHT22;32083;47.360;9.650;2022-11-21T23:07:11;7.60;99.90
46378;DHT22;32083;47.360;9.650;2022-11-21T23:09:37;7.50;99.90
46378;DHT22;32083;47.360;9.650;2022-11-21T23:12:03;7.40;99.90
46378;DHT22;32083;47.360;9.650;2022-11-21T23:14:29;7.30;99.90
46378;DHT22;32083;47.360;9.650;2022-11-21T23:16:55;7.30;99.90
46378;DHT22;32083;47.360;9.650;2022-11-21T23:19:21;7.30;99.90
46378;DHT22;32083;47.360;9.650;2022-11-21T23:21:47;7.40;99.90
46378;DHT22;32083;47.360;9.650;2022-11-21T23:24:13;7.30;99.90
46378;DHT22;32083;47.360;9.650;2022-11-21T23:26:39;7.40;99.90
46378;DHT22;32083;47.360;9.650;2022-11-21T23:29:04;7.30;99.90